sensor_id;sensor_type;location;lat;lon;timestamp;P1;durP1;ratioP1;P2;durP2;ratioP2
6300;SDS011;3183;51.010;6.898;2022-07-23T00:00:13;58.57;;;30.03;;
6300;SDS011;3183;51.010;6.898;2022-07-23T00:02:40;61.30;;;31.60;;
6300;SDS011;3183;51.010;6.898;2022-07-23T00:05:08;60.73;;;29.20;;
6300;SDS011;3183;51.010;6.898;2022-07-23T00:07:35;63.33;;;31.67;;
6300;SDS011;3183;51.010;6.898;2022-07-23T00:10:02;52.40;;;29.03;;
6300;SDS011;3183;51.010;6.898;2022-07-23T00:12:29;63.70;;;30.37;;
6300;SDS011;3183;51.010;6.898;2022-07-23T00:14:58;52.93;;;26.87;;
6300;SDS011;3183;51.010;6.898;2022-07-23T00:17:25;58.87;;;28.13;;
6300;SDS011;3183;51.010;6.898;2022-07-23T00:19:52;65.03;;;31.37;;
6300;SDS011;3183;51.010;6.898;2022-07-23T00:22:19;61.63;;;29.80;;
6300;SDS011;3183;51.010;6.898;2022-07-23T00:24:47;64.50;;;29.90;;
6300;SDS011;3183;51.010;6.898;2022-07-23T00:27:14;53.70;;;30.00;;
6300;SDS011;3183;51.010;6.898;2022-07-23T00:29:41;54.43;;;27.97;;
6300;SDS011;3183;51.010;6.898;2022-07-23T00:32:09;60.10;;;30.00;;
6300;SDS011;3183;51.010;6.898;2022-07-23T00:34:37;67.53;;;30.97;;
6300;SDS011;3183;51.010;6.898;2022-07-23T00:37:04;57.87;;;28.93;;
6300;SDS011;3183;51.010;6.898;2022-07-23T00:39:31;54.83;;;27.60;;
6300;SDS011;3183;51.010;6.898;2022-07-23T00:41:58;54.63;;;28.60;;
6300;SDS011;3183;51.010;6.898;2022-07-23T00:44:26;55.87;;;28.70;;
6300;SDS011;3183;51.010;6.898;2022-07-23T00:46:54;52.60;;;28.37;;
6300;SDS011;3183;51.010;6.898;2022-07-23T00:49:23;54.50;;;29.97;;
6300;SDS011;3183;51.010;6.898;2022-07-23T00:51:50;49.27;;;27.43;;
6300;SDS011;3183;51.010;6.898;2022-07-23T00:54:19;53.47;;;26.00;;
6300;SDS011;3183;51.010;6.898;2022-07-23T00:56:46;52.07;;;25.90;;
6300;SDS011;3183;51.010;6.898;2022-07-23T00:59:13;48.03;;;25.67;;
6300;SDS011;3183;51.010;6.898;2022-07-23T01:01:41;51.87;;;25.90;;
6300;SDS011;3183;51.010;6.898;2022-07-23T01:04:10;52.10;;;26.00;;
6300;SDS011;3183;51.010;6.898;2022-07-23T01:06:38;62.47;;;27.40;;
6300;SDS011;3183;51.010;6.898;2022-07-23T01:09:06;49.43;;;25.50;;
6300;SDS011;3183;51.010;6.898;2022-07-23T01:11:34;38.57;;;25.00;;
6300;SDS011;3183;51.010;6.898;2022-07-23T01:14:07;45.37;;;26.27;;
6300;SDS011;3183;51.010;6.898;2022-07-23T01:16:34;50.27;;;25.50;;
6300;SDS011;3183;51.010;6.898;2022-07-23T01:19:01;54.17;;;25.77;;
6300;SDS011;3183;51.010;6.898;2022-07-23T01:21:31;46.93;;;25.17;;
6300;SDS011;3183;51.010;6.898;2022-07-23T01:24:00;46.40;;;25.00;;
6300;SDS011;3183;51.010;6.898;2022-07-23T01:26:27;55.93;;;26.87;;
6300;SDS011;3183;51.010;6.898;2022-07-23T01:28:54;42.80;;;24.03;;
6300;SDS011;3183;51.010;6.898;2022-07-23T01:31:21;44.03;;;23.40;;
6300;SDS011;3183;51.010;6.898;2022-07-23T01:33:49;47.80;;;23.70;;
6300;SDS011;3183;51.010;6.898;2022-07-23T01:36:16;50.87;;;25.20;;
6300;SDS011;3183;51.010;6.898;2022-07-23T01:38:43;48.40;;;26.00;;
6300;SDS011;3183;51.010;6.898;2022-07-23T01:41:12;47.07;;;24.47;;
6300;SDS011;3183;51.010;6.898;2022-07-23T01:43:39;52.90;;;26.70;;
6300;SDS011;3183;51.010;6.898;2022-07-23T01:46:06;52.37;;;25.10;;
6300;SDS011;3183;51.010;6.898;2022-07-23T01:48:33;51.70;;;25.43;;
6300;SDS011;3183;51.010;6.898;2022-07-23T01:51:00;46.77;;;24.17;;
6300;SDS011;3183;51.010;6.898;2022-07-23T01:53:28;50.23;;;27.30;;
6300;SDS011;3183;51.010;6.898;2022-07-23T01:55:56;48.93;;;24.10;;
6300;SDS011;3183;51.010;6.898;2022-07-23T01:58:25;55.07;;;26.17;;
6300;SDS011;3183;51.010;6.898;2022-07-23T02:00:52;50.00;;;24.90;;
6300;SDS011;3183;51.010;6.898;2022-07-23T02:03:19;44.60;;;24.57;;
6300;SDS011;3183;51.010;6.898;2022-07-23T02:05:46;45.13;;;24.20;;
6300;SDS011;3183;51.010;6.898;2022-07-23T02:08:14;51.83;;;25.40;;
6300;SDS011;3183;51.010;6.898;2022-07-23T02:10:41;52.23;;;27.83;;
6300;SDS011;3183;51.010;6.898;2022-07-23T02:13:08;64.47;;;27.93;;
6300;SDS011;3183;51.010;6.898;2022-07-23T02:15:37;57.33;;;26.83;;
6300;SDS011;3183;51.010;6.898;2022-07-23T02:18:04;44.73;;;24.73;;
6300;SDS011;3183;51.010;6.898;2022-07-23T02:20:33;53.03;;;25.90;;
6300;SDS011;3183;51.010;6.898;2022-07-23T02:23:03;51.00;;;28.07;;
6300;SDS011;3183;51.010;6.898;2022-07-23T02:25:30;57.40;;;27.23;;
6300;SDS011;3183;51.010;6.898;2022-07-23T02:27:57;59.97;;;25.90;;
6300;SDS011;3183;51.010;6.898;2022-07-23T02:30:24;56.47;;;27.30;;
6300;SDS011;3183;51.010;6.898;2022-07-23T02:32:53;56.40;;;27.23;;
6300;SDS011;3183;51.010;6.898;2022-07-23T02:35:20;62.40;;;27.60;;
6300;SDS011;3183;51.010;6.898;2022-07-23T02:37:47;55.60;;;26.77;;
6300;SDS011;3183;51.010;6.898;2022-07-23T02:40:14;56.37;;;26.47;;
6300;SDS011;3183;51.010;6.898;2022-07-23T02:42:41;58.47;;;27.30;;
6300;SDS011;3183;51.010;6.898;2022-07-23T02:45:09;62.53;;;29.30;;
6300;SDS011;3183;51.010;6.898;2022-07-23T02:47:36;59.50;;;28.40;;
6300;SDS011;3183;51.010;6.898;2022-07-23T02:50:05;62.37;;;29.27;;
6300;SDS011;3183;51.010;6.898;2022-07-23T02:52:32;73.17;;;30.73;;
6300;SDS011;3183;51.010;6.898;2022-07-23T02:54:59;57.70;;;29.17;;
6300;SDS011;3183;51.010;6.898;2022-07-23T02:57:27;60.30;;;28.87;;
6300;SDS011;3183;51.010;6.898;2022-07-23T02:59:54;59.10;;;27.57;;
6300;SDS011;3183;51.010;6.898;2022-07-23T03:02:21;62.13;;;29.50;;
6300;SDS011;3183;51.010;6.898;2022-07-23T03:04:48;57.03;;;28.73;;
6300;SDS011;3183;51.010;6.898;2022-07-23T03:07:17;58.00;;;28.40;;
6300;SDS011;3183;51.010;6.898;2022-07-23T03:09:44;55.20;;;28.00;;
6300;SDS011;3183;51.010;6.898;2022-07-23T03:12:11;56.90;;;29.47;;
6300;SDS011;3183;51.010;6.898;2022-07-23T03:14:39;61.37;;;29.30;;
6300;SDS011;3183;51.010;6.898;2022-07-23T03:17:06;71.00;;;30.20;;
6300;SDS011;3183;51.010;6.898;2022-07-23T03:19:33;74.30;;;31.50;;
6300;SDS011;3183;51.010;6.898;2022-07-23T03:22:01;71.70;;;30.57;;
6300;SDS011;3183;51.010;6.898;2022-07-23T03:24:30;61.27;;;32.90;;
6300;SDS011;3183;51.010;6.898;2022-07-23T03:27:11;64.37;;;30.23;;
6300;SDS011;3183;51.010;6.898;2022-07-23T03:29:38;63.13;;;31.10;;
6300;SDS011;3183;51.010;6.898;2022-07-23T03:32:05;77.57;;;31.50;;
6300;SDS011;3183;51.010;6.898;2022-07-23T03:34:33;72.50;;;30.77;;
6300;SDS011;3183;51.010;6.898;2022-07-23T03:37:00;70.07;;;31.57;;
6300;SDS011;3183;51.010;6.898;2022-07-23T03:39:27;69.70;;;31.10;;
6300;SDS011;3183;51.010;6.898;2022-07-23T03:41:56;75.50;;;33.13;;
6300;SDS011;3183;51.010;6.898;2022-07-23T03:44:23;72.40;;;32.30;;
6300;SDS011;3183;51.010;6.898;2022-07-23T03:46:50;65.90;;;32.10;;
6300;SDS011;3183;51.010;6.898;2022-07-23T03:49:17;74.90;;;31.23;;
6300;SDS011;3183;51.010;6.898;2022-07-23T03:51:44;79.97;;;33.63;;
6300;SDS011;3183;51.010;6.898;2022-07-23T03:54:11;89.63;;;33.67;;
6300;SDS011;3183;51.010;6.898;2022-07-23T03:56:38;78.87;;;30.90;;
6300;SDS011;3183;51.010;6.898;2022-07-23T03:59:07;66.20;;;30.30;;
6300;SDS011;3183;51.010;6.898;2022-07-23T04:01:34;65.30;;;31.03;;
6300;SDS011;3183;51.010;6.898;2022-07-23T04:04:01;66.73;;;30.23;;
6300;SDS011;3183;51.010;6.898;2022-07-23T04:06:28;80.37;;;33.57;;
6300;SDS011;3183;51.010;6.898;2022-07-23T04:08:56;69.70;;;32.10;;
6300;SDS011;3183;51.010;6.898;2022-07-23T04:11:23;79.23;;;30.90;;
6300;SDS011;3183;51.010;6.898;2022-07-23T04:13:50;70.23;;;32.10;;
6300;SDS011;3183;51.010;6.898;2022-07-23T04:16:18;77.80;;;32.17;;
6300;SDS011;3183;51.010;6.898;2022-07-23T04:18:46;68.77;;;31.40;;
6300;SDS011;3183;51.010;6.898;2022-07-23T04:21:13;64.67;;;29.23;;
6300;SDS011;3183;51.010;6.898;2022-07-23T04:23:40;78.60;;;32.53;;
6300;SDS011;3183;51.010;6.898;2022-07-23T04:26:07;75.17;;;31.47;;
6300;SDS011;3183;51.010;6.898;2022-07-23T04:28:34;67.77;;;30.27;;
6300;SDS011;3183;51.010;6.898;2022-07-23T04:31:01;67.67;;;30.77;;
6300;SDS011;3183;51.010;6.898;2022-07-23T04:33:30;78.47;;;33.23;;
6300;SDS011;3183;51.010;6.898;2022-07-23T04:35:57;80.93;;;31.87;;
6300;SDS011;3183;51.010;6.898;2022-07-23T04:38:24;73.37;;;31.70;;
6300;SDS011;3183;51.010;6.898;2022-07-23T04:40:51;76.17;;;32.33;;
6300;SDS011;3183;51.010;6.898;2022-07-23T04:43:18;72.50;;;30.60;;
6300;SDS011;3183;51.010;6.898;2022-07-23T04:45:46;73.30;;;33.57;;
6300;SDS011;3183;51.010;6.898;2022-07-23T04:48:13;77.27;;;33.77;;
6300;SDS011;3183;51.010;6.898;2022-07-23T04:50:41;78.10;;;31.97;;
6300;SDS011;3183;51.010;6.898;2022-07-23T04:53:08;65.57;;;30.70;;
6300;SDS011;3183;51.010;6.898;2022-07-23T04:55:36;67.47;;;30.67;;
6300;SDS011;3183;51.010;6.898;2022-07-23T04:58:03;73.97;;;29.90;;
6300;SDS011;3183;51.010;6.898;2022-07-23T05:00:30;69.27;;;31.20;;
6300;SDS011;3183;51.010;6.898;2022-07-23T05:02:57;63.67;;;31.40;;
6300;SDS011;3183;51.010;6.898;2022-07-23T05:05:24;59.13;;;28.73;;
6300;SDS011;3183;51.010;6.898;2022-07-23T05:07:53;70.37;;;30.90;;
6300;SDS011;3183;51.010;6.898;2022-07-23T05:10:20;62.97;;;30.40;;
6300;SDS011;3183;51.010;6.898;2022-07-23T05:12:47;65.27;;;29.27;;
6300;SDS011;3183;51.010;6.898;2022-07-23T05:15:14;49.50;;;23.77;;
6300;SDS011;3183;51.010;6.898;2022-07-23T05:17:42;41.73;;;22.43;;
6300;SDS011;3183;51.010;6.898;2022-07-23T05:20:09;54.93;;;25.80;;
6300;SDS011;3183;51.010;6.898;2022-07-23T05:22:36;47.03;;;24.40;;
6300;SDS011;3183;51.010;6.898;2022-07-23T05:25:05;46.80;;;22.83;;
6300;SDS011;3183;51.010;6.898;2022-07-23T05:27:33;36.33;;;20.90;;
6300;SDS011;3183;51.010;6.898;2022-07-23T05:30:00;33.97;;;18.90;;
6300;SDS011;3183;51.010;6.898;2022-07-23T05:32:27;39.13;;;17.43;;
6300;SDS011;3183;51.010;6.898;2022-07-23T05:34:54;32.57;;;16.30;;
6300;SDS011;3183;51.010;6.898;2022-07-23T05:37:21;30.77;;;16.60;;
6300;SDS011;3183;51.010;6.898;2022-07-23T05:39:48;22.70;;;15.80;;
6300;SDS011;3183;51.010;6.898;2022-07-23T05:42:17;22.90;;;14.03;;
6300;SDS011;3183;51.010;6.898;2022-07-23T05:44:44;27.97;;;15.53;;
6300;SDS011;3183;51.010;6.898;2022-07-23T05:47:11;26.40;;;15.63;;
6300;SDS011;3183;51.010;6.898;2022-07-23T05:49:38;25.63;;;15.20;;
6300;SDS011;3183;51.010;6.898;2022-07-23T05:52:06;24.07;;;15.57;;
6300;SDS011;3183;51.010;6.898;2022-07-23T05:54:33;25.13;;;14.90;;
6300;SDS011;3183;51.010;6.898;2022-07-23T05:57:01;29.17;;;14.80;;
6300;SDS011;3183;51.010;6.898;2022-07-23T05:59:29;30.10;;;15.00;;
6300;SDS011;3183;51.010;6.898;2022-07-23T06:01:57;23.27;;;14.57;;
6300;SDS011;3183;51.010;6.898;2022-07-23T06:04:24;29.67;;;14.50;;
6300;SDS011;3183;51.010;6.898;2022-07-23T06:06:51;24.10;;;14.20;;
6300;SDS011;3183;51.010;6.898;2022-07-23T06:09:18;19.60;;;13.67;;
6300;SDS011;3183;51.010;6.898;2022-07-23T06:11:46;29.60;;;15.67;;
6300;SDS011;3183;51.010;6.898;2022-07-23T06:14:13;26.13;;;14.13;;
6300;SDS011;3183;51.010;6.898;2022-07-23T06:16:41;23.67;;;15.50;;
6300;SDS011;3183;51.010;6.898;2022-07-23T06:19:08;28.80;;;16.13;;
6300;SDS011;3183;51.010;6.898;2022-07-23T06:21:35;25.77;;;15.57;;
6300;SDS011;3183;51.010;6.898;2022-07-23T06:24:03;27.47;;;16.00;;
6300;SDS011;3183;51.010;6.898;2022-07-23T06:26:30;26.97;;;13.73;;
6300;SDS011;3183;51.010;6.898;2022-07-23T06:28:57;28.93;;;16.17;;
6300;SDS011;3183;51.010;6.898;2022-07-23T06:31:24;19.37;;;12.80;;
6300;SDS011;3183;51.010;6.898;2022-07-23T06:33:53;23.33;;;15.07;;
6300;SDS011;3183;51.010;6.898;2022-07-23T06:36:20;21.20;;;14.83;;
6300;SDS011;3183;51.010;6.898;2022-07-23T06:38:47;28.80;;;15.50;;
6300;SDS011;3183;51.010;6.898;2022-07-23T06:41:14;22.20;;;15.57;;
6300;SDS011;3183;51.010;6.898;2022-07-23T06:43:41;21.40;;;14.40;;
6300;SDS011;3183;51.010;6.898;2022-07-23T06:46:08;34.57;;;15.57;;
6300;SDS011;3183;51.010;6.898;2022-07-23T06:48:35;27.40;;;15.23;;
6300;SDS011;3183;51.010;6.898;2022-07-23T06:51:04;26.90;;;14.93;;
6300;SDS011;3183;51.010;6.898;2022-07-23T06:53:31;22.53;;;14.10;;
6300;SDS011;3183;51.010;6.898;2022-07-23T06:55:59;21.10;;;13.70;;
6300;SDS011;3183;51.010;6.898;2022-07-23T06:58:26;21.40;;;14.40;;
6300;SDS011;3183;51.010;6.898;2022-07-23T07:00:53;19.87;;;13.77;;
6300;SDS011;3183;51.010;6.898;2022-07-23T07:03:21;23.47;;;15.60;;
6300;SDS011;3183;51.010;6.898;2022-07-23T07:05:49;23.03;;;15.80;;
6300;SDS011;3183;51.010;6.898;2022-07-23T07:08:18;23.70;;;14.60;;
6300;SDS011;3183;51.010;6.898;2022-07-23T07:10:45;25.10;;;14.70;;
6300;SDS011;3183;51.010;6.898;2022-07-23T07:13:12;18.87;;;14.40;;
6300;SDS011;3183;51.010;6.898;2022-07-23T07:15:40;28.17;;;14.57;;
6300;SDS011;3183;51.010;6.898;2022-07-23T07:18:07;18.40;;;13.50;;
6300;SDS011;3183;51.010;6.898;2022-07-23T07:20:34;24.90;;;13.60;;
6300;SDS011;3183;51.010;6.898;2022-07-23T07:23:01;16.67;;;12.30;;
6300;SDS011;3183;51.010;6.898;2022-07-23T07:25:30;18.03;;;12.47;;
6300;SDS011;3183;51.010;6.898;2022-07-23T07:27:57;15.23;;;10.50;;
6300;SDS011;3183;51.010;6.898;2022-07-23T07:30:24;18.87;;;12.47;;
6300;SDS011;3183;51.010;6.898;2022-07-23T07:32:51;18.77;;;13.40;;
6300;SDS011;3183;51.010;6.898;2022-07-23T07:35:19;19.13;;;11.40;;
6300;SDS011;3183;51.010;6.898;2022-07-23T07:37:46;22.53;;;10.70;;
6300;SDS011;3183;51.010;6.898;2022-07-23T07:40:13;20.43;;;12.90;;
6300;SDS011;3183;51.010;6.898;2022-07-23T07:42:45;14.90;;;11.47;;
6300;SDS011;3183;51.010;6.898;2022-07-23T07:45:12;17.20;;;11.00;;
6300;SDS011;3183;51.010;6.898;2022-07-23T07:47:40;18.40;;;10.00;;
6300;SDS011;3183;51.010;6.898;2022-07-23T07:50:07;19.37;;;9.00;;
6300;SDS011;3183;51.010;6.898;2022-07-23T07:52:35;17.47;;;11.10;;
6300;SDS011;3183;51.010;6.898;2022-07-23T07:55:02;12.53;;;9.33;;
6300;SDS011;3183;51.010;6.898;2022-07-23T07:57:29;13.17;;;9.07;;
6300;SDS011;3183;51.010;6.898;2022-07-23T07:59:58;12.90;;;8.17;;
6300;SDS011;3183;51.010;6.898;2022-07-23T08:02:25;15.30;;;9.43;;
6300;SDS011;3183;51.010;6.898;2022-07-23T08:04:52;16.13;;;10.17;;
6300;SDS011;3183;51.010;6.898;2022-07-23T08:07:22;17.93;;;8.77;;
6300;SDS011;3183;51.010;6.898;2022-07-23T08:09:49;11.33;;;8.70;;
6300;SDS011;3183;51.010;6.898;2022-07-23T08:12:16;17.43;;;10.40;;
6300;SDS011;3183;51.010;6.898;2022-07-23T08:14:43;17.93;;;10.73;;
6300;SDS011;3183;51.010;6.898;2022-07-23T08:17:12;19.03;;;10.93;;
6300;SDS011;3183;51.010;6.898;2022-07-23T08:19:39;170.57;;;19.43;;
6300;SDS011;3183;51.010;6.898;2022-07-23T08:22:06;20.93;;;12.90;;
6300;SDS011;3183;51.010;6.898;2022-07-23T08:24:33;22.77;;;13.80;;
6300;SDS011;3183;51.010;6.898;2022-07-23T08:27:00;72.47;;;15.40;;
6300;SDS011;3183;51.010;6.898;2022-07-23T08:29:28;22.10;;;11.30;;
6300;SDS011;3183;51.010;6.898;2022-07-23T08:31:55;32.50;;;13.27;;
6300;SDS011;3183;51.010;6.898;2022-07-23T08:34:23;37.20;;;12.43;;
6300;SDS011;3183;51.010;6.898;2022-07-23T08:36:50;86.37;;;14.63;;
6300;SDS011;3183;51.010;6.898;2022-07-23T08:39:18;19.30;;;10.90;;
6300;SDS011;3183;51.010;6.898;2022-07-23T08:41:45;103.40;;;16.80;;
6300;SDS011;3183;51.010;6.898;2022-07-23T08:44:13;14.90;;;11.90;;
6300;SDS011;3183;51.010;6.898;2022-07-23T08:46:41;18.93;;;13.57;;
6300;SDS011;3183;51.010;6.898;2022-07-23T08:49:08;23.73;;;16.07;;
6300;SDS011;3183;51.010;6.898;2022-07-23T08:51:36;33.07;;;16.43;;
6300;SDS011;3183;51.010;6.898;2022-07-23T08:54:04;52.27;;;16.30;;
6300;SDS011;3183;51.010;6.898;2022-07-23T08:56:31;167.10;;;23.93;;
6300;SDS011;3183;51.010;6.898;2022-07-23T08:58:58;223.57;;;25.90;;
6300;SDS011;3183;51.010;6.898;2022-07-23T09:01:25;24.53;;;13.63;;
6300;SDS011;3183;51.010;6.898;2022-07-23T09:03:53;24.77;;;16.50;;
6300;SDS011;3183;51.010;6.898;2022-07-23T09:06:20;26.70;;;16.23;;
6300;SDS011;3183;51.010;6.898;2022-07-23T09:08:48;24.83;;;17.53;;
6300;SDS011;3183;51.010;6.898;2022-07-23T09:11:16;26.93;;;15.50;;
6300;SDS011;3183;51.010;6.898;2022-07-23T09:13:45;29.53;;;17.30;;
6300;SDS011;3183;51.010;6.898;2022-07-23T09:16:13;141.60;;;21.20;;
6300;SDS011;3183;51.010;6.898;2022-07-23T09:18:42;19.57;;;14.93;;
6300;SDS011;3183;51.010;6.898;2022-07-23T09:21:17;22.13;;;13.07;;
6300;SDS011;3183;51.010;6.898;2022-07-23T09:23:45;18.10;;;11.60;;
6300;SDS011;3183;51.010;6.898;2022-07-23T09:26:21;18.23;;;12.80;;
6300;SDS011;3183;51.010;6.898;2022-07-23T09:28:49;16.27;;;12.13;;
6300;SDS011;3183;51.010;6.898;2022-07-23T09:31:17;17.47;;;12.10;;
6300;SDS011;3183;51.010;6.898;2022-07-23T09:33:44;16.67;;;11.50;;
6300;SDS011;3183;51.010;6.898;2022-07-23T09:36:12;14.23;;;10.23;;
6300;SDS011;3183;51.010;6.898;2022-07-23T09:38:47;13.83;;;9.67;;
6300;SDS011;3183;51.010;6.898;2022-07-23T09:41:14;17.33;;;10.17;;
6300;SDS011;3183;51.010;6.898;2022-07-23T09:43:43;13.73;;;10.30;;
6300;SDS011;3183;51.010;6.898;2022-07-23T09:46:17;17.80;;;10.97;;
6300;SDS011;3183;51.010;6.898;2022-07-23T09:48:45;15.03;;;11.00;;
6300;SDS011;3183;51.010;6.898;2022-07-23T09:51:12;19.27;;;12.70;;
6300;SDS011;3183;51.010;6.898;2022-07-23T09:53:40;19.27;;;10.87;;
6300;SDS011;3183;51.010;6.898;2022-07-23T09:56:07;15.57;;;10.03;;
6300;SDS011;3183;51.010;6.898;2022-07-23T09:58:36;13.93;;;10.23;;
6300;SDS011;3183;51.010;6.898;2022-07-23T10:01:11;16.20;;;9.97;;
6300;SDS011;3183;51.010;6.898;2022-07-23T10:03:40;17.13;;;10.77;;
6300;SDS011;3183;51.010;6.898;2022-07-23T10:06:08;15.60;;;11.27;;
6300;SDS011;3183;51.010;6.898;2022-07-23T10:08:35;15.20;;;10.70;;
6300;SDS011;3183;51.010;6.898;2022-07-23T10:11:02;12.27;;;9.90;;
6300;SDS011;3183;51.010;6.898;2022-07-23T10:13:30;15.63;;;11.57;;
6300;SDS011;3183;51.010;6.898;2022-07-23T10:16:27;12.90;;;9.67;;
6300;SDS011;3183;51.010;6.898;2022-07-23T10:18:54;15.33;;;10.10;;
6300;SDS011;3183;51.010;6.898;2022-07-23T10:21:24;12.70;;;10.47;;
6300;SDS011;3183;51.010;6.898;2022-07-23T10:23:58;16.20;;;13.37;;
6300;SDS011;3183;51.010;6.898;2022-07-23T10:26:29;14.60;;;12.07;;
6300;SDS011;3183;51.010;6.898;2022-07-23T10:29:02;15.23;;;11.10;;
6300;SDS011;3183;51.010;6.898;2022-07-23T10:31:38;21.37;;;12.03;;
6300;SDS011;3183;51.010;6.898;2022-07-23T10:34:11;22.93;;;14.63;;
6300;SDS011;3183;51.010;6.898;2022-07-23T10:36:42;18.17;;;13.27;;
6300;SDS011;3183;51.010;6.898;2022-07-23T10:39:11;19.70;;;14.33;;
6300;SDS011;3183;51.010;6.898;2022-07-23T10:41:41;21.80;;;13.87;;
6300;SDS011;3183;51.010;6.898;2022-07-23T10:44:09;17.97;;;12.10;;
6300;SDS011;3183;51.010;6.898;2022-07-23T10:49:27;19.40;;;11.70;;
6300;SDS011;3183;51.010;6.898;2022-07-23T10:54:40;14.67;;;12.17;;
6300;SDS011;3183;51.010;6.898;2022-07-23T10:57:08;19.10;;;11.03;;
6300;SDS011;3183;51.010;6.898;2022-07-23T11:02:22;18.70;;;13.37;;
6300;SDS011;3183;51.010;6.898;2022-07-23T11:04:51;15.83;;;12.50;;
6300;SDS011;3183;51.010;6.898;2022-07-23T11:07:19;17.50;;;12.97;;
6300;SDS011;3183;51.010;6.898;2022-07-23T11:09:46;18.70;;;12.33;;
6300;SDS011;3183;51.010;6.898;2022-07-23T11:12:32;13.23;;;10.90;;
6300;SDS011;3183;51.010;6.898;2022-07-23T11:15:00;18.27;;;11.70;;
6300;SDS011;3183;51.010;6.898;2022-07-23T11:17:28;14.90;;;12.50;;
6300;SDS011;3183;51.010;6.898;2022-07-23T11:22:48;18.90;;;12.57;;
6300;SDS011;3183;51.010;6.898;2022-07-23T11:25:28;20.20;;;12.40;;
6300;SDS011;3183;51.010;6.898;2022-07-23T11:28:07;17.70;;;10.73;;
6300;SDS011;3183;51.010;6.898;2022-07-23T11:30:38;15.80;;;9.07;;
6300;SDS011;3183;51.010;6.898;2022-07-23T11:33:15;12.90;;;9.00;;
6300;SDS011;3183;51.010;6.898;2022-07-23T11:35:43;13.23;;;8.70;;
6300;SDS011;3183;51.010;6.898;2022-07-23T11:38:13;12.20;;;8.63;;
6300;SDS011;3183;51.010;6.898;2022-07-23T11:40:41;15.23;;;9.37;;
6300;SDS011;3183;51.010;6.898;2022-07-23T11:43:10;16.70;;;9.80;;
6300;SDS011;3183;51.010;6.898;2022-07-23T11:45:38;15.90;;;10.00;;
6300;SDS011;3183;51.010;6.898;2022-07-23T11:48:06;13.30;;;10.43;;
6300;SDS011;3183;51.010;6.898;2022-07-23T11:50:34;12.70;;;8.50;;
6300;SDS011;3183;51.010;6.898;2022-07-23T11:53:02;12.33;;;7.97;;
6300;SDS011;3183;51.010;6.898;2022-07-23T11:55:30;14.03;;;8.00;;
6300;SDS011;3183;51.010;6.898;2022-07-23T11:57:58;12.77;;;9.10;;
6300;SDS011;3183;51.010;6.898;2022-07-23T12:00:26;10.37;;;8.30;;
6300;SDS011;3183;51.010;6.898;2022-07-23T12:02:55;9.63;;;7.07;;
6300;SDS011;3183;51.010;6.898;2022-07-23T12:05:25;21.00;;;9.40;;
6300;SDS011;3183;51.010;6.898;2022-07-23T12:07:53;14.43;;;7.80;;
6300;SDS011;3183;51.010;6.898;2022-07-23T12:10:21;8.90;;;6.73;;
6300;SDS011;3183;51.010;6.898;2022-07-23T12:12:50;19.80;;;8.63;;
6300;SDS011;3183;51.010;6.898;2022-07-23T12:15:18;8.43;;;6.90;;
6300;SDS011;3183;51.010;6.898;2022-07-23T12:17:46;11.70;;;8.00;;
6300;SDS011;3183;51.010;6.898;2022-07-23T12:20:14;7.83;;;5.40;;
6300;SDS011;3183;51.010;6.898;2022-07-23T12:22:43;8.40;;;3.90;;
6300;SDS011;3183;51.010;6.898;2022-07-23T12:25:11;14.43;;;4.47;;
6300;SDS011;3183;51.010;6.898;2022-07-23T12:27:40;8.27;;;4.80;;
6300;SDS011;3183;51.010;6.898;2022-07-23T12:30:19;8.57;;;5.50;;
6300;SDS011;3183;51.010;6.898;2022-07-23T12:32:47;9.33;;;5.07;;
6300;SDS011;3183;51.010;6.898;2022-07-23T12:35:14;14.00;;;5.67;;
6300;SDS011;3183;51.010;6.898;2022-07-23T12:37:42;10.50;;;6.37;;
6300;SDS011;3183;51.010;6.898;2022-07-23T12:40:20;19.53;;;5.40;;
6300;SDS011;3183;51.010;6.898;2022-07-23T12:42:47;9.00;;;5.50;;
6300;SDS011;3183;51.010;6.898;2022-07-23T12:45:15;8.00;;;4.07;;
6300;SDS011;3183;51.010;6.898;2022-07-23T12:50:39;5.00;;;3.27;;
6300;SDS011;3183;51.010;6.898;2022-07-23T12:53:07;13.23;;;3.30;;
6300;SDS011;3183;51.010;6.898;2022-07-23T12:55:34;3.73;;;3.13;;
6300;SDS011;3183;51.010;6.898;2022-07-23T12:58:02;8.00;;;3.50;;
6300;SDS011;3183;51.010;6.898;2022-07-23T13:00:30;6.13;;;3.37;;
6300;SDS011;3183;51.010;6.898;2022-07-23T13:02:58;4.73;;;3.00;;
6300;SDS011;3183;51.010;6.898;2022-07-23T13:05:25;7.00;;;3.53;;
6300;SDS011;3183;51.010;6.898;2022-07-23T13:07:53;5.47;;;3.70;;
6300;SDS011;3183;51.010;6.898;2022-07-23T13:10:20;4.07;;;2.70;;
6300;SDS011;3183;51.010;6.898;2022-07-23T13:12:48;10.67;;;3.97;;
6300;SDS011;3183;51.010;6.898;2022-07-23T13:15:15;5.70;;;3.70;;
6300;SDS011;3183;51.010;6.898;2022-07-23T13:17:42;4.20;;;3.17;;
6300;SDS011;3183;51.010;6.898;2022-07-23T13:20:10;6.20;;;3.07;;
6300;SDS011;3183;51.010;6.898;2022-07-23T13:22:38;4.17;;;3.13;;
6300;SDS011;3183;51.010;6.898;2022-07-23T13:25:07;3.73;;;2.77;;
6300;SDS011;3183;51.010;6.898;2022-07-23T13:27:34;3.80;;;3.03;;
6300;SDS011;3183;51.010;6.898;2022-07-23T13:30:02;8.70;;;3.30;;
6300;SDS011;3183;51.010;6.898;2022-07-23T13:32:29;6.00;;;3.00;;
6300;SDS011;3183;51.010;6.898;2022-07-23T13:34:56;5.43;;;3.50;;
6300;SDS011;3183;51.010;6.898;2022-07-23T13:37:23;5.80;;;3.17;;
6300;SDS011;3183;51.010;6.898;2022-07-23T13:39:51;3.50;;;2.90;;
6300;SDS011;3183;51.010;6.898;2022-07-23T13:42:19;4.73;;;3.20;;
6300;SDS011;3183;51.010;6.898;2022-07-23T13:44:47;3.53;;;3.10;;
6300;SDS011;3183;51.010;6.898;2022-07-23T13:47:14;7.90;;;3.30;;
6300;SDS011;3183;51.010;6.898;2022-07-23T13:49:41;3.30;;;2.53;;
6300;SDS011;3183;51.010;6.898;2022-07-23T13:52:08;3.90;;;2.63;;
6300;SDS011;3183;51.010;6.898;2022-07-23T13:54:35;6.50;;;3.40;;
6300;SDS011;3183;51.010;6.898;2022-07-23T13:57:03;4.23;;;3.50;;
6300;SDS011;3183;51.010;6.898;2022-07-23T13:59:32;5.30;;;2.87;;
6300;SDS011;3183;51.010;6.898;2022-07-23T14:01:59;7.00;;;3.17;;
6300;SDS011;3183;51.010;6.898;2022-07-23T14:04:26;4.97;;;3.10;;
6300;SDS011;3183;51.010;6.898;2022-07-23T14:06:53;4.80;;;3.23;;
6300;SDS011;3183;51.010;6.898;2022-07-23T14:09:20;4.97;;;3.60;;
6300;SDS011;3183;51.010;6.898;2022-07-23T14:11:48;7.27;;;3.47;;
6300;SDS011;3183;51.010;6.898;2022-07-23T14:14:16;5.40;;;3.50;;
6300;SDS011;3183;51.010;6.898;2022-07-23T14:16:44;5.50;;;3.40;;
6300;SDS011;3183;51.010;6.898;2022-07-23T14:19:11;5.10;;;3.20;;
6300;SDS011;3183;51.010;6.898;2022-07-23T14:21:38;2.90;;;2.50;;
6300;SDS011;3183;51.010;6.898;2022-07-23T14:24:06;3.87;;;2.77;;
6300;SDS011;3183;51.010;6.898;2022-07-23T14:26:33;3.43;;;2.83;;
6300;SDS011;3183;51.010;6.898;2022-07-23T14:29:00;6.57;;;2.47;;
6300;SDS011;3183;51.010;6.898;2022-07-23T14:31:28;3.53;;;2.80;;
6300;SDS011;3183;51.010;6.898;2022-07-23T14:33:56;2.40;;;2.20;;
6300;SDS011;3183;51.010;6.898;2022-07-23T14:36:24;3.87;;;2.70;;
6300;SDS011;3183;51.010;6.898;2022-07-23T14:38:51;6.67;;;3.23;;
6300;SDS011;3183;51.010;6.898;2022-07-23T14:41:18;6.37;;;3.50;;
6300;SDS011;3183;51.010;6.898;2022-07-23T14:43:45;3.80;;;3.17;;
6300;SDS011;3183;51.010;6.898;2022-07-23T14:46:13;5.53;;;3.00;;
6300;SDS011;3183;51.010;6.898;2022-07-23T14:48:40;7.87;;;3.40;;
6300;SDS011;3183;51.010;6.898;2022-07-23T14:51:09;4.07;;;3.00;;
6300;SDS011;3183;51.010;6.898;2022-07-23T14:53:36;5.93;;;3.33;;
6300;SDS011;3183;51.010;6.898;2022-07-23T14:56:03;4.97;;;3.77;;
6300;SDS011;3183;51.010;6.898;2022-07-23T14:58:31;3.40;;;3.07;;
6300;SDS011;3183;51.010;6.898;2022-07-23T15:00:58;8.00;;;3.27;;
6300;SDS011;3183;51.010;6.898;2022-07-23T15:03:25;5.13;;;3.00;;
6300;SDS011;3183;51.010;6.898;2022-07-23T15:05:52;10.03;;;3.23;;
6300;SDS011;3183;51.010;6.898;2022-07-23T15:08:21;6.57;;;3.47;;
6300;SDS011;3183;51.010;6.898;2022-07-23T15:10:48;8.20;;;3.77;;